Strona główna
METAR-TAF:

METAR-TAF

Lotnisko :

Baza lotnicza

Meppen, Niemcy

Szerokość geograficzna: 52-43-24N, Długość geograficzna: 007-19-35E, wysokość: 21 m

Aktualna obserwacja pogody

Raport powstał 1 godzina i 3 minut temu, godzina 00:20 UTC
Wiatr 2 kt z kierunków zmiennych
Temperatura 6°C
Wilgotność 56%
Ciśnienie 1025 hPa

METAR: ETWM 050020Z AUTO VRB02KT //// // ////// 06/M02 Q1025 ///

czas: 03:23 (01:23 UTC)


TAF: brakujący

Obserwacja i prognoza pogody dla ponad 4000 lotnisk (raport METAR i TAF).

Dostępne stacje oznaczono żółtymi i czerwonymi punktami na mapie.

Najedź kursorem aby zobaczyć nazwę stacji.

Kliknij aby zobaczyć obserwacje i prognozy pogody.

Aby zmienić mapę: kliknij na zielony przycisk z czarnym krzyżykiem, aby powiększyć; na zielony przycisk z myślnikiem, aby pomniejszyć; na zielone strzałki, aby przejść do map sąsiednich.


METAR-TAF: